sensor_id;sensor_type;location;lat;lon;timestamp;P1;durP1;ratioP1;P2;durP2;ratioP2
64157;SDS011;50449;51.528;5.076;2023-09-07T00:00:29;151.63;;;145.05;;
64157;SDS011;50449;51.528;5.076;2023-09-07T00:02:54;156.48;;;149.70;;
64157;SDS011;50449;51.528;5.076;2023-09-07T00:05:20;159.77;;;152.65;;
64157;SDS011;50449;51.528;5.076;2023-09-07T00:07:45;153.57;;;146.68;;
64157;SDS011;50449;51.528;5.076;2023-09-07T00:10:11;149.57;;;143.13;;
64157;SDS011;50449;51.528;5.076;2023-09-07T00:12:36;150.85;;;144.25;;
64157;SDS011;50449;51.528;5.076;2023-09-07T00:15:04;153.50;;;146.77;;
64157;SDS011;50449;51.528;5.076;2023-09-07T00:17:31;151.00;;;144.37;;
64157;SDS011;50449;51.528;5.076;2023-09-07T00:19:57;151.68;;;145.07;;
64157;SDS011;50449;51.528;5.076;2023-09-07T00:22:23;157.15;;;150.30;;
64157;SDS011;50449;51.528;5.076;2023-09-07T00:24:50;150.17;;;143.57;;
64157;SDS011;50449;51.528;5.076;2023-09-07T00:27:16;149.60;;;143.13;;
64157;SDS011;50449;51.528;5.076;2023-09-07T00:29:41;149.20;;;142.65;;
64157;SDS011;50449;51.528;5.076;2023-09-07T00:32:07;155.85;;;149.07;;
64157;SDS011;50449;51.528;5.076;2023-09-07T00:34:32;150.20;;;143.65;;
64157;SDS011;50449;51.528;5.076;2023-09-07T00:36:58;149.07;;;142.57;;
64157;SDS011;50449;51.528;5.076;2023-09-07T00:39:25;151.43;;;144.93;;
64157;SDS011;50449;51.528;5.076;2023-09-07T00:41:50;147.90;;;141.57;;
64157;SDS011;50449;51.528;5.076;2023-09-07T00:44:16;147.75;;;141.27;;
64157;SDS011;50449;51.528;5.076;2023-09-07T00:46:41;156.57;;;149.77;;
64157;SDS011;50449;51.528;5.076;2023-09-07T00:49:09;147.65;;;141.15;;
64157;SDS011;50449;51.528;5.076;2023-09-07T00:51:36;149.15;;;142.57;;
64157;SDS011;50449;51.528;5.076;2023-09-07T00:54:01;147.52;;;140.98;;
64157;SDS011;50449;51.528;5.076;2023-09-07T00:56:27;147.30;;;140.68;;
64157;SDS011;50449;51.528;5.076;2023-09-07T00:58:53;146.73;;;140.27;;
64157;SDS011;50449;51.528;5.076;2023-09-07T01:01:19;151.68;;;144.98;;
64157;SDS011;50449;51.528;5.076;2023-09-07T01:03:46;145.68;;;139.32;;
64157;SDS011;50449;51.528;5.076;2023-09-07T01:06:12;146.07;;;139.65;;
64157;SDS011;50449;51.528;5.076;2023-09-07T01:08:44;145.35;;;138.77;;
64157;SDS011;50449;51.528;5.076;2023-09-07T01:11:16;142.65;;;136.25;;
64157;SDS011;50449;51.528;5.076;2023-09-07T01:13:43;143.40;;;137.07;;
64157;SDS011;50449;51.528;5.076;2023-09-07T01:16:09;144.35;;;138.13;;
64157;SDS011;50449;51.528;5.076;2023-09-07T01:18:37;141.30;;;135.15;;
64157;SDS011;50449;51.528;5.076;2023-09-07T01:21:04;145.85;;;139.45;;
64157;SDS011;50449;51.528;5.076;2023-09-07T01:23:32;141.73;;;135.52;;
64157;SDS011;50449;51.528;5.076;2023-09-07T01:26:01;145.13;;;138.77;;
64157;SDS011;50449;51.528;5.076;2023-09-07T01:28:27;147.75;;;141.27;;
64157;SDS011;50449;51.528;5.076;2023-09-07T01:30:53;142.48;;;136.07;;
64157;SDS011;50449;51.528;5.076;2023-09-07T01:33:18;143.10;;;136.85;;
64157;SDS011;50449;51.528;5.076;2023-09-07T01:35:44;146.50;;;140.13;;
64157;SDS011;50449;51.528;5.076;2023-09-07T01:38:10;151.88;;;145.23;;
64157;SDS011;50449;51.528;5.076;2023-09-07T01:40:35;145.05;;;138.38;;
64157;SDS011;50449;51.528;5.076;2023-09-07T01:43:01;144.20;;;137.98;;
64157;SDS011;50449;51.528;5.076;2023-09-07T01:45:26;144.15;;;137.70;;
64157;SDS011;50449;51.528;5.076;2023-09-07T01:47:52;142.85;;;136.55;;
64157;SDS011;50449;51.528;5.076;2023-09-07T01:50:17;142.75;;;136.40;;
64157;SDS011;50449;51.528;5.076;2023-09-07T01:52:45;136.82;;;130.73;;
64157;SDS011;50449;51.528;5.076;2023-09-07T01:55:12;140.27;;;134.07;;
64157;SDS011;50449;51.528;5.076;2023-09-07T01:57:38;143.00;;;136.80;;
64157;SDS011;50449;51.528;5.076;2023-09-07T02:00:03;141.05;;;134.70;;
64157;SDS011;50449;51.528;5.076;2023-09-07T02:02:30;145.60;;;139.15;;
64157;SDS011;50449;51.528;5.076;2023-09-07T02:04:56;142.68;;;136.02;;
64157;SDS011;50449;51.528;5.076;2023-09-07T02:07:21;143.73;;;137.35;;
64157;SDS011;50449;51.528;5.076;2023-09-07T02:09:46;139.55;;;133.50;;
64157;SDS011;50449;51.528;5.076;2023-09-07T02:12:12;139.32;;;133.05;;
64157;SDS011;50449;51.528;5.076;2023-09-07T02:14:37;140.82;;;134.40;;
64157;SDS011;50449;51.528;5.076;2023-09-07T02:17:03;141.90;;;135.50;;
64157;SDS011;50449;51.528;5.076;2023-09-07T02:19:28;139.90;;;133.57;;
64157;SDS011;50449;51.528;5.076;2023-09-07T02:21:54;139.40;;;133.30;;
64157;SDS011;50449;51.528;5.076;2023-09-07T02:24:19;140.70;;;134.35;;
64157;SDS011;50449;51.528;5.076;2023-09-07T02:26:45;137.85;;;131.75;;
64157;SDS011;50449;51.528;5.076;2023-09-07T02:29:13;137.65;;;131.52;;
64157;SDS011;50449;51.528;5.076;2023-09-07T02:31:39;140.75;;;134.55;;
64157;SDS011;50449;51.528;5.076;2023-09-07T02:34:05;141.40;;;135.05;;
64157;SDS011;50449;51.528;5.076;2023-09-07T02:36:30;146.95;;;140.35;;
64157;SDS011;50449;51.528;5.076;2023-09-07T02:38:56;134.95;;;128.95;;
64157;SDS011;50449;51.528;5.076;2023-09-07T02:41:21;139.75;;;133.55;;
64157;SDS011;50449;51.528;5.076;2023-09-07T02:43:47;136.93;;;130.82;;
64157;SDS011;50449;51.528;5.076;2023-09-07T02:46:12;134.38;;;128.20;;
64157;SDS011;50449;51.528;5.076;2023-09-07T02:48:37;136.18;;;129.90;;
64157;SDS011;50449;51.528;5.076;2023-09-07T02:51:03;137.23;;;130.93;;
64157;SDS011;50449;51.528;5.076;2023-09-07T02:53:29;140.48;;;134.07;;
64157;SDS011;50449;51.528;5.076;2023-09-07T02:55:54;134.07;;;128.15;;
64157;SDS011;50449;51.528;5.076;2023-09-07T02:58:21;132.32;;;126.38;;
64157;SDS011;50449;51.528;5.076;2023-09-07T03:00:48;136.40;;;130.32;;
64157;SDS011;50449;51.528;5.076;2023-09-07T03:03:13;133.50;;;127.57;;
64157;SDS011;50449;51.528;5.076;2023-09-07T03:05:39;136.18;;;130.07;;
64157;SDS011;50449;51.528;5.076;2023-09-07T03:08:06;139.38;;;133.25;;
64157;SDS011;50449;51.528;5.076;2023-09-07T03:10:32;135.10;;;128.90;;
64157;SDS011;50449;51.528;5.076;2023-09-07T03:12:57;131.10;;;125.10;;
64157;SDS011;50449;51.528;5.076;2023-09-07T03:15:23;137.75;;;131.68;;
64157;SDS011;50449;51.528;5.076;2023-09-07T03:17:48;132.98;;;126.93;;
64157;SDS011;50449;51.528;5.076;2023-09-07T03:20:14;131.90;;;126.00;;
64157;SDS011;50449;51.528;5.076;2023-09-07T03:22:43;135.60;;;129.50;;
64157;SDS011;50449;51.528;5.076;2023-09-07T03:25:09;134.93;;;128.85;;
64157;SDS011;50449;51.528;5.076;2023-09-07T03:27:35;134.50;;;128.40;;
64157;SDS011;50449;51.528;5.076;2023-09-07T03:30:05;131.82;;;125.88;;
64157;SDS011;50449;51.528;5.076;2023-09-07T03:32:34;138.98;;;132.68;;
64157;SDS011;50449;51.528;5.076;2023-09-07T03:37:28;133.90;;;127.72;;
64157;SDS011;50449;51.528;5.076;2023-09-07T03:39:54;133.10;;;127.10;;
64157;SDS011;50449;51.528;5.076;2023-09-07T03:42:21;127.13;;;121.20;;
64157;SDS011;50449;51.528;5.076;2023-09-07T03:44:46;133.45;;;127.20;;
64157;SDS011;50449;51.528;5.076;2023-09-07T03:47:13;131.48;;;124.55;;
64157;SDS011;50449;51.528;5.076;2023-09-07T03:49:39;133.05;;;126.93;;
64157;SDS011;50449;51.528;5.076;2023-09-07T03:52:04;131.05;;;125.05;;
64157;SDS011;50449;51.528;5.076;2023-09-07T03:54:30;133.25;;;127.15;;
64157;SDS011;50449;51.528;5.076;2023-09-07T03:56:56;128.20;;;122.38;;
64157;SDS011;50449;51.528;5.076;2023-09-07T03:59:22;127.80;;;121.93;;
64157;SDS011;50449;51.528;5.076;2023-09-07T04:01:48;128.63;;;122.60;;
64157;SDS011;50449;51.528;5.076;2023-09-07T04:04:13;128.13;;;122.43;;
64157;SDS011;50449;51.528;5.076;2023-09-07T04:06:38;134.98;;;128.80;;
64157;SDS011;50449;51.528;5.076;2023-09-07T04:09:04;128.88;;;123.03;;
64157;SDS011;50449;51.528;5.076;2023-09-07T04:11:29;127.45;;;121.38;;
64157;SDS011;50449;51.528;5.076;2023-09-07T04:13:55;127.50;;;121.70;;
64157;SDS011;50449;51.528;5.076;2023-09-07T04:16:20;127.72;;;121.93;;
64157;SDS011;50449;51.528;5.076;2023-09-07T04:18:46;130.20;;;124.30;;
64157;SDS011;50449;51.528;5.076;2023-09-07T04:21:11;126.47;;;120.78;;
64157;SDS011;50449;51.528;5.076;2023-09-07T04:23:37;127.05;;;121.13;;
64157;SDS011;50449;51.528;5.076;2023-09-07T04:26:10;128.93;;;122.95;;
64157;SDS011;50449;51.528;5.076;2023-09-07T04:28:37;132.73;;;126.53;;
64157;SDS011;50449;51.528;5.076;2023-09-07T04:31:03;128.40;;;122.53;;
64157;SDS011;50449;51.528;5.076;2023-09-07T04:33:30;123.32;;;117.63;;
64157;SDS011;50449;51.528;5.076;2023-09-07T04:35:56;126.70;;;120.78;;
64157;SDS011;50449;51.528;5.076;2023-09-07T04:38:22;130.85;;;125.03;;
64157;SDS011;50449;51.528;5.076;2023-09-07T04:40:47;133.60;;;127.70;;
64157;SDS011;50449;51.528;5.076;2023-09-07T04:43:13;129.93;;;123.85;;
64157;SDS011;50449;51.528;5.076;2023-09-07T04:45:47;126.80;;;120.80;;
64157;SDS011;50449;51.528;5.076;2023-09-07T04:48:13;130.23;;;124.32;;
64157;SDS011;50449;51.528;5.076;2023-09-07T04:50:38;132.70;;;126.50;;
64157;SDS011;50449;51.528;5.076;2023-09-07T04:53:03;122.50;;;116.70;;
64157;SDS011;50449;51.528;5.076;2023-09-07T04:55:29;124.13;;;118.30;;
64157;SDS011;50449;51.528;5.076;2023-09-07T04:57:54;123.88;;;118.13;;
64157;SDS011;50449;51.528;5.076;2023-09-07T05:00:20;124.78;;;119.07;;
64157;SDS011;50449;51.528;5.076;2023-09-07T05:02:45;127.93;;;122.03;;
64157;SDS011;50449;51.528;5.076;2023-09-07T05:05:12;126.57;;;120.95;;
64157;SDS011;50449;51.528;5.076;2023-09-07T05:07:37;125.38;;;119.50;;
64157;SDS011;50449;51.528;5.076;2023-09-07T05:10:03;124.25;;;118.70;;
64157;SDS011;50449;51.528;5.076;2023-09-07T05:12:28;125.60;;;119.90;;
64157;SDS011;50449;51.528;5.076;2023-09-07T05:14:54;124.55;;;118.65;;
64157;SDS011;50449;51.528;5.076;2023-09-07T05:17:19;120.78;;;115.25;;
64157;SDS011;50449;51.528;5.076;2023-09-07T05:19:45;123.47;;;117.93;;
64157;SDS011;50449;51.528;5.076;2023-09-07T05:22:10;121.85;;;116.28;;
64157;SDS011;50449;51.528;5.076;2023-09-07T05:24:37;119.70;;;114.30;;
64157;SDS011;50449;51.528;5.076;2023-09-07T05:27:03;117.68;;;111.88;;
64157;SDS011;50449;51.528;5.076;2023-09-07T05:29:29;120.05;;;114.45;;
64157;SDS011;50449;51.528;5.076;2023-09-07T05:31:54;119.82;;;114.03;;
64157;SDS011;50449;51.528;5.076;2023-09-07T05:34:19;123.78;;;118.07;;
64157;SDS011;50449;51.528;5.076;2023-09-07T05:36:45;120.13;;;114.72;;
64157;SDS011;50449;51.528;5.076;2023-09-07T05:39:10;118.28;;;112.97;;
64157;SDS011;50449;51.528;5.076;2023-09-07T05:41:35;123.13;;;117.43;;
64157;SDS011;50449;51.528;5.076;2023-09-07T05:44:01;120.13;;;114.63;;
64157;SDS011;50449;51.528;5.076;2023-09-07T05:46:27;121.88;;;116.25;;
64157;SDS011;50449;51.528;5.076;2023-09-07T05:48:52;121.05;;;115.50;;
64157;SDS011;50449;51.528;5.076;2023-09-07T05:51:18;119.50;;;114.00;;
64157;SDS011;50449;51.528;5.076;2023-09-07T05:53:43;122.97;;;117.40;;
64157;SDS011;50449;51.528;5.076;2023-09-07T05:56:09;120.50;;;115.10;;
64157;SDS011;50449;51.528;5.076;2023-09-07T05:58:34;119.30;;;113.88;;
64157;SDS011;50449;51.528;5.076;2023-09-07T06:00:59;118.55;;;113.05;;
64157;SDS011;50449;51.528;5.076;2023-09-07T06:03:25;118.43;;;112.97;;
64157;SDS011;50449;51.528;5.076;2023-09-07T06:05:50;118.82;;;113.32;;
64157;SDS011;50449;51.528;5.076;2023-09-07T06:08:16;117.45;;;112.05;;
64157;SDS011;50449;51.528;5.076;2023-09-07T06:10:41;117.00;;;111.65;;
64157;SDS011;50449;51.528;5.076;2023-09-07T06:13:07;121.55;;;115.90;;
64157;SDS011;50449;51.528;5.076;2023-09-07T06:15:32;121.25;;;115.75;;
64157;SDS011;50449;51.528;5.076;2023-09-07T06:17:57;118.28;;;112.80;;
64157;SDS011;50449;51.528;5.076;2023-09-07T06:20:23;119.97;;;114.50;;
64157;SDS011;50449;51.528;5.076;2023-09-07T06:22:48;118.90;;;113.47;;
64157;SDS011;50449;51.528;5.076;2023-09-07T06:25:15;115.10;;;109.95;;
64157;SDS011;50449;51.528;5.076;2023-09-07T06:27:40;118.10;;;112.50;;
64157;SDS011;50449;51.528;5.076;2023-09-07T06:30:06;115.90;;;110.50;;
64157;SDS011;50449;51.528;5.076;2023-09-07T06:32:32;114.65;;;109.35;;
64157;SDS011;50449;51.528;5.076;2023-09-07T06:34:58;113.80;;;108.47;;
64157;SDS011;50449;51.528;5.076;2023-09-07T06:37:23;114.30;;;109.15;;
64157;SDS011;50449;51.528;5.076;2023-09-07T06:39:49;118.72;;;113.22;;
64157;SDS011;50449;51.528;5.076;2023-09-07T06:42:15;117.28;;;112.07;;
64157;SDS011;50449;51.528;5.076;2023-09-07T06:44:40;116.50;;;111.05;;
64157;SDS011;50449;51.528;5.076;2023-09-07T06:47:06;113.40;;;108.10;;
64157;SDS011;50449;51.528;5.076;2023-09-07T06:49:32;116.00;;;110.78;;
64157;SDS011;50449;51.528;5.076;2023-09-07T06:51:57;116.95;;;111.35;;
64157;SDS011;50449;51.528;5.076;2023-09-07T06:54:23;117.63;;;111.78;;
64157;SDS011;50449;51.528;5.076;2023-09-07T06:56:48;114.75;;;109.45;;
64157;SDS011;50449;51.528;5.076;2023-09-07T06:59:14;114.03;;;108.72;;
64157;SDS011;50449;51.528;5.076;2023-09-07T07:01:39;116.85;;;111.45;;
64157;SDS011;50449;51.528;5.076;2023-09-07T07:04:05;114.50;;;109.03;;
64157;SDS011;50449;51.528;5.076;2023-09-07T07:06:30;115.15;;;109.45;;
64157;SDS011;50449;51.528;5.076;2023-09-07T07:08:56;115.85;;;110.28;;
64157;SDS011;50449;51.528;5.076;2023-09-07T07:11:21;118.53;;;113.13;;
64157;SDS011;50449;51.528;5.076;2023-09-07T07:13:46;113.82;;;108.55;;
64157;SDS011;50449;51.528;5.076;2023-09-07T07:16:12;115.35;;;109.72;;
64157;SDS011;50449;51.528;5.076;2023-09-07T07:18:38;115.65;;;110.35;;
64157;SDS011;50449;51.528;5.076;2023-09-07T07:21:04;113.00;;;107.82;;
64157;SDS011;50449;51.528;5.076;2023-09-07T07:23:30;115.63;;;110.10;;
64157;SDS011;50449;51.528;5.076;2023-09-07T07:25:56;111.78;;;106.55;;
64157;SDS011;50449;51.528;5.076;2023-09-07T07:28:22;113.03;;;107.82;;
64157;SDS011;50449;51.528;5.076;2023-09-07T07:30:47;113.88;;;108.63;;
64157;SDS011;50449;51.528;5.076;2023-09-07T07:33:13;113.43;;;108.13;;
64157;SDS011;50449;51.528;5.076;2023-09-07T07:35:39;113.70;;;108.22;;
64157;SDS011;50449;51.528;5.076;2023-09-07T07:38:04;113.47;;;108.07;;
64157;SDS011;50449;51.528;5.076;2023-09-07T07:40:32;111.10;;;105.95;;
64157;SDS011;50449;51.528;5.076;2023-09-07T07:42:58;115.00;;;109.72;;
64157;SDS011;50449;51.528;5.076;2023-09-07T07:45:23;109.97;;;104.50;;
64157;SDS011;50449;51.528;5.076;2023-09-07T07:47:49;117.03;;;110.65;;
64157;SDS011;50449;51.528;5.076;2023-09-07T07:50:15;111.80;;;106.07;;
64157;SDS011;50449;51.528;5.076;2023-09-07T07:52:41;117.68;;;111.78;;
64157;SDS011;50449;51.528;5.076;2023-09-07T07:55:07;115.15;;;109.55;;
64157;SDS011;50449;51.528;5.076;2023-09-07T07:57:33;114.22;;;108.72;;
64157;SDS011;50449;51.528;5.076;2023-09-07T07:59:59;114.15;;;108.57;;
64157;SDS011;50449;51.528;5.076;2023-09-07T08:02:24;114.35;;;108.95;;
64157;SDS011;50449;51.528;5.076;2023-09-07T08:04:50;112.63;;;107.10;;
64157;SDS011;50449;51.528;5.076;2023-09-07T08:07:16;115.60;;;110.10;;
64157;SDS011;50449;51.528;5.076;2023-09-07T08:09:41;117.28;;;111.30;;
64157;SDS011;50449;51.528;5.076;2023-09-07T08:12:07;116.90;;;110.93;;
64157;SDS011;50449;51.528;5.076;2023-09-07T08:14:32;113.95;;;108.68;;
64157;SDS011;50449;51.528;5.076;2023-09-07T08:16:58;117.68;;;111.75;;
64157;SDS011;50449;51.528;5.076;2023-09-07T08:19:24;117.10;;;111.45;;
64157;SDS011;50449;51.528;5.076;2023-09-07T08:21:50;114.15;;;108.93;;
64157;SDS011;50449;51.528;5.076;2023-09-07T08:24:16;119.68;;;114.03;;
64157;SDS011;50449;51.528;5.076;2023-09-07T08:26:41;116.20;;;110.90;;
64157;SDS011;50449;51.528;5.076;2023-09-07T08:29:07;118.40;;;112.75;;
64157;SDS011;50449;51.528;5.076;2023-09-07T08:31:36;118.43;;;112.97;;
64157;SDS011;50449;51.528;5.076;2023-09-07T08:34:04;118.07;;;112.25;;
64157;SDS011;50449;51.528;5.076;2023-09-07T08:36:31;117.57;;;112.28;;
64157;SDS011;50449;51.528;5.076;2023-09-07T08:38:59;117.93;;;112.57;;
64157;SDS011;50449;51.528;5.076;2023-09-07T08:41:26;119.05;;;113.43;;
64157;SDS011;50449;51.528;5.076;2023-09-07T08:43:53;118.32;;;112.95;;
64157;SDS011;50449;51.528;5.076;2023-09-07T08:46:20;121.70;;;116.28;;
64157;SDS011;50449;51.528;5.076;2023-09-07T08:48:48;124.20;;;118.68;;
64157;SDS011;50449;51.528;5.076;2023-09-07T08:51:15;122.78;;;117.10;;
64157;SDS011;50449;51.528;5.076;2023-09-07T08:53:42;120.50;;;115.00;;
64157;SDS011;50449;51.528;5.076;2023-09-07T08:56:11;122.80;;;117.20;;
64157;SDS011;50449;51.528;5.076;2023-09-07T08:58:37;122.40;;;116.82;;
64157;SDS011;50449;51.528;5.076;2023-09-07T09:01:02;122.57;;;116.88;;
64157;SDS011;50449;51.528;5.076;2023-09-07T09:03:28;123.35;;;117.90;;
64157;SDS011;50449;51.528;5.076;2023-09-07T09:05:55;120.63;;;115.05;;
64157;SDS011;50449;51.528;5.076;2023-09-07T09:08:21;124.65;;;118.63;;
64157;SDS011;50449;51.528;5.076;2023-09-07T09:10:49;121.13;;;115.38;;
64157;SDS011;50449;51.528;5.076;2023-09-07T09:13:30;123.13;;;117.53;;
64157;SDS011;50449;51.528;5.076;2023-09-07T09:15:56;124.50;;;118.35;;
64157;SDS011;50449;51.528;5.076;2023-09-07T09:18:24;120.97;;;115.72;;
64157;SDS011;50449;51.528;5.076;2023-09-07T09:20:52;119.13;;;113.18;;
64157;SDS011;50449;51.528;5.076;2023-09-07T09:23:17;118.13;;;112.80;;
64157;SDS011;50449;51.528;5.076;2023-09-07T09:25:43;118.32;;;113.05;;
64157;SDS011;50449;51.528;5.076;2023-09-07T09:28:09;119.95;;;114.25;;
64157;SDS011;50449;51.528;5.076;2023-09-07T09:30:35;121.50;;;116.05;;
64157;SDS011;50449;51.528;5.076;2023-09-07T09:33:01;123.95;;;118.15;;
64157;SDS011;50449;51.528;5.076;2023-09-07T09:35:27;125.75;;;120.20;;
64157;SDS011;50449;51.528;5.076;2023-09-07T09:37:54;124.90;;;117.90;;
64157;SDS011;50449;51.528;5.076;2023-09-07T09:40:20;126.10;;;120.35;;
64157;SDS011;50449;51.528;5.076;2023-09-07T09:42:46;124.38;;;118.78;;
64157;SDS011;50449;51.528;5.076;2023-09-07T09:45:11;128.60;;;122.65;;
64157;SDS011;50449;51.528;5.076;2023-09-07T09:47:41;122.88;;;117.50;;
64157;SDS011;50449;51.528;5.076;2023-09-07T09:50:08;125.60;;;119.78;;
64157;SDS011;50449;51.528;5.076;2023-09-07T09:52:35;127.38;;;121.53;;
64157;SDS011;50449;51.528;5.076;2023-09-07T09:55:02;127.78;;;121.82;;
64157;SDS011;50449;51.528;5.076;2023-09-07T09:57:37;127.55;;;121.80;;
64157;SDS011;50449;51.528;5.076;2023-09-07T10:00:07;128.10;;;122.43;;
64157;SDS011;50449;51.528;5.076;2023-09-07T10:05:37;130.93;;;125.05;;
64157;SDS011;50449;51.528;5.076;2023-09-07T10:08:04;130.77;;;124.68;;
64157;SDS011;50449;51.528;5.076;2023-09-07T10:10:37;128.75;;;123.10;;
64157;SDS011;50449;51.528;5.076;2023-09-07T10:13:04;125.20;;;119.65;;
64157;SDS011;50449;51.528;5.076;2023-09-07T10:15:30;126.85;;;121.13;;
64157;SDS011;50449;51.528;5.076;2023-09-07T10:18:05;130.02;;;124.05;;
64157;SDS011;50449;51.528;5.076;2023-09-07T10:20:50;131.70;;;125.80;;
64157;SDS011;50449;51.528;5.076;2023-09-07T10:23:19;128.00;;;122.13;;
64157;SDS011;50449;51.528;5.076;2023-09-07T10:25:51;134.77;;;128.43;;
64157;SDS011;50449;51.528;5.076;2023-09-07T10:28:20;134.77;;;128.88;;
64157;SDS011;50449;51.528;5.076;2023-09-07T10:30:57;132.05;;;126.05;;
64157;SDS011;50449;51.528;5.076;2023-09-07T10:33:41;133.60;;;127.43;;
64157;SDS011;50449;51.528;5.076;2023-09-07T10:36:06;134.05;;;128.15;;
64157;SDS011;50449;51.528;5.076;2023-09-07T10:38:32;132.10;;;126.35;;
64157;SDS011;50449;51.528;5.076;2023-09-07T10:41:02;134.50;;;128.57;;
64157;SDS011;50449;51.528;5.076;2023-09-07T10:43:29;135.90;;;130.00;;
64157;SDS011;50449;51.528;5.076;2023-09-07T10:45:56;132.13;;;126.20;;
64157;SDS011;50449;51.528;5.076;2023-09-07T10:48:26;137.93;;;131.95;;
64157;SDS011;50449;51.528;5.076;2023-09-07T10:50:54;142.13;;;135.85;;
64157;SDS011;50449;51.528;5.076;2023-09-07T10:53:29;134.40;;;128.52;;
64157;SDS011;50449;51.528;5.076;2023-09-07T10:55:57;134.07;;;128.23;;
64157;SDS011;50449;51.528;5.076;2023-09-07T10:58:25;138.45;;;132.15;;
64157;SDS011;50449;51.528;5.076;2023-09-07T11:01:01;136.18;;;130.27;;
64157;SDS011;50449;51.528;5.076;2023-09-07T11:03:29;134.38;;;128.38;;
64157;SDS011;50449;51.528;5.076;2023-09-07T11:05:56;146.23;;;139.65;;
64157;SDS011;50449;51.528;5.076;2023-09-07T11:08:25;137.63;;;131.68;;
64157;SDS011;50449;51.528;5.076;2023-09-07T11:10:52;139.80;;;133.80;;
64157;SDS011;50449;51.528;5.076;2023-09-07T11:13:17;137.85;;;131.85;;
64157;SDS011;50449;51.528;5.076;2023-09-07T11:15:43;137.02;;;131.00;;
64157;SDS011;50449;51.528;5.076;2023-09-07T11:18:09;137.65;;;131.40;;
64157;SDS011;50449;51.528;5.076;2023-09-07T11:20:36;141.60;;;135.43;;
64157;SDS011;50449;51.528;5.076;2023-09-07T11:23:05;135.68;;;129.70;;
64157;SDS011;50449;51.528;5.076;2023-09-07T11:25:35;140.57;;;134.40;;
64157;SDS011;50449;51.528;5.076;2023-09-07T11:28:02;141.23;;;134.98;;
64157;SDS011;50449;51.528;5.076;2023-09-07T11:30:31;141.75;;;135.63;;
64157;SDS011;50449;51.528;5.076;2023-09-07T11:33:04;143.38;;;137.15;;
64157;SDS011;50449;51.528;5.076;2023-09-07T11:35:31;141.57;;;135.43;;
64157;SDS011;50449;51.528;5.076;2023-09-07T11:37:57;145.27;;;139.02;;
64157;SDS011;50449;51.528;5.076;2023-09-07T11:40:24;145.38;;;139.07;;
64157;SDS011;50449;51.528;5.076;2023-09-07T11:42:50;151.60;;;145.10;;
64157;SDS011;50449;51.528;5.076;2023-09-07T11:45:15;147.00;;;140.60;;
64157;SDS011;50449;51.528;5.076;2023-09-07T11:47:42;144.82;;;138.40;;
64157;SDS011;50449;51.528;5.076;2023-09-07T11:50:07;144.57;;;138.45;;
64157;SDS011;50449;51.528;5.076;2023-09-07T11:52:33;143.07;;;136.82;;
64157;SDS011;50449;51.528;5.076;2023-09-07T11:54:59;148.23;;;141.82;;
64157;SDS011;50449;51.528;5.076;2023-09-07T11:57:25;142.93;;;136.65;;
64157;SDS011;50449;51.528;5.076;2023-09-07T11:59:50;148.02;;;141.57;;
64157;SDS011;50449;51.528;5.076;2023-09-07T12:02:15;147.75;;;141.45;;
64157;SDS011;50449;51.528;5.076;2023-09-07T12:04:42;143.73;;;137.52;;
64157;SDS011;50449;51.528;5.076;2023-09-07T12:07:09;148.32;;;141.75;;
64157;SDS011;50449;51.528;5.076;2023-09-07T12:09:35;151.63;;;145.02;;
64157;SDS011;50449;51.528;5.076;2023-09-07T12:12:00;146.82;;;140.57;;
64157;SDS011;50449;51.528;5.076;2023-09-07T12:14:25;149.80;;;143.40;;
64157;SDS011;50449;51.528;5.076;2023-09-07T12:16:51;145.55;;;139.18;;
64157;SDS011;50449;51.528;5.076;2023-09-07T12:19:16;152.05;;;145.50;;
64157;SDS011;50449;51.528;5.076;2023-09-07T12:21:42;148.07;;;141.68;;
64157;SDS011;50449;51.528;5.076;2023-09-07T12:24:07;147.35;;;141.10;;
64157;SDS011;50449;51.528;5.076;2023-09-07T12:26:33;148.95;;;142.25;;
64157;SDS011;50449;51.528;5.076;2023-09-07T12:28:58;150.02;;;143.63;;
64157;SDS011;50449;51.528;5.076;2023-09-07T12:31:24;157.18;;;150.10;;
64157;SDS011;50449;51.528;5.076;2023-09-07T12:33:50;152.40;;;145.88;;
64157;SDS011;50449;51.528;5.076;2023-09-07T12:36:16;152.98;;;146.18;;
64157;SDS011;50449;51.528;5.076;2023-09-07T12:38:42;155.80;;;149.00;;
64157;SDS011;50449;51.528;5.076;2023-09-07T12:41:07;157.20;;;150.55;;
64157;SDS011;50449;51.528;5.076;2023-09-07T12:43:33;153.77;;;146.88;;
64157;SDS011;50449;51.528;5.076;2023-09-07T12:45:58;152.30;;;145.85;;
64157;SDS011;50449;51.528;5.076;2023-09-07T12:48:24;160.25;;;153.07;;
64157;SDS011;50449;51.528;5.076;2023-09-07T12:50:49;160.60;;;153.60;;
64157;SDS011;50449;51.528;5.076;2023-09-07T12:53:15;157.93;;;151.27;;
64157;SDS011;50449;51.528;5.076;2023-09-07T12:55:41;163.27;;;156.48;;
64157;SDS011;50449;51.528;5.076;2023-09-07T12:58:06;154.68;;;148.10;;
64157;SDS011;50449;51.528;5.076;2023-09-07T13:00:31;157.45;;;150.85;;
64157;SDS011;50449;51.528;5.076;2023-09-07T13:02:57;162.38;;;155.48;;
64157;SDS011;50449;51.528;5.076;2023-09-07T13:05:22;161.32;;;154.45;;
64157;SDS011;50449;51.528;5.076;2023-09-07T13:07:48;160.38;;;153.55;;
64157;SDS011;50449;51.528;5.076;2023-09-07T13:10:13;162.50;;;155.57;;
64157;SDS011;50449;51.528;5.076;2023-09-07T13:12:39;161.57;;;154.73;;
64157;SDS011;50449;51.528;5.076;2023-09-07T13:15:05;164.82;;;157.82;;
64157;SDS011;50449;51.528;5.076;2023-09-07T13:17:31;161.57;;;154.70;;
64157;SDS011;50449;51.528;5.076;2023-09-07T13:19:56;167.07;;;160.07;;
64157;SDS011;50449;51.528;5.076;2023-09-07T13:22:21;168.68;;;161.60;;
64157;SDS011;50449;51.528;5.076;2023-09-07T13:24:47;167.13;;;160.32;;
64157;SDS011;50449;51.528;5.076;2023-09-07T13:27:13;174.18;;;166.85;;
64157;SDS011;50449;51.528;5.076;2023-09-07T13:29:38;170.90;;;163.63;;
64157;SDS011;50449;51.528;5.076;2023-09-07T13:32:04;169.45;;;162.10;;
64157;SDS011;50449;51.528;5.076;2023-09-07T13:34:29;173.38;;;166.13;;
64157;SDS011;50449;51.528;5.076;2023-09-07T13:36:55;166.85;;;159.68;;
64157;SDS011;50449;51.528;5.076;2023-09-07T13:39:21;177.73;;;170.48;;
64157;SDS011;50449;51.528;5.076;2023-09-07T13:41:47;177.43;;;170.15;;
64157;SDS011;50449;51.528;5.076;2023-09-07T13:44:16;174.30;;;166.88;;
64157;SDS011;50449;51.528;5.076;2023-09-07T13:46:42;172.07;;;164.98;;
64157;SDS011;50449;51.528;5.076;2023-09-07T13:49:09;173.23;;;166.02;;
64157;SDS011;50449;51.528;5.076;2023-09-07T13:51:35;171.77;;;164.57;;
64157;SDS011;50449;51.528;5.076;2023-09-07T13:54:06;183.25;;;175.65;;
64157;SDS011;50449;51.528;5.076;2023-09-07T13:56:33;178.18;;;170.48;;